createdAt,value
2023-04-08T00:00:04.032Z,29.80
2023-04-08T00:02:34.679Z,25.30
2023-04-08T00:05:03.808Z,24.23
2023-04-08T00:07:32.576Z,26.95
2023-04-08T00:10:01.529Z,25.50
2023-04-08T00:12:30.718Z,24.52
2023-04-08T00:14:59.550Z,25.65
2023-04-08T00:17:28.654Z,24.95
2023-04-08T00:19:59.021Z,26.60
2023-04-08T00:22:28.380Z,27.75
2023-04-08T00:24:57.547Z,24.33
2023-04-08T00:27:26.310Z,25.10
2023-04-08T00:29:55.034Z,22.83
2023-04-08T00:32:24.282Z,24.70
2023-04-08T00:34:53.311Z,23.95
2023-04-08T00:37:25.402Z,22.87
2023-04-08T00:39:59.375Z,19.40
2023-04-08T00:42:30.809Z,19.10
2023-04-08T00:44:59.816Z,20.17
2023-04-08T00:47:28.790Z,20.57
2023-04-08T00:49:57.816Z,20.57
2023-04-08T00:52:28.056Z,19.83
2023-04-08T00:54:57.974Z,19.40
2023-04-08T00:57:27.209Z,18.77
2023-04-08T00:59:56.508Z,19.40
2023-04-08T01:02:29.191Z,17.42
2023-04-08T01:05:02.348Z,15.80
2023-04-08T01:07:35.014Z,15.95
2023-04-08T01:10:05.448Z,16.15
2023-04-08T01:12:35.382Z,16.38
2023-04-08T01:15:06.910Z,17.42
2023-04-08T01:17:36.772Z,16.05
2023-04-08T01:20:07.680Z,16.33
2023-04-08T01:22:43.407Z,16.58
2023-04-08T01:25:14.766Z,16.05
2023-04-08T01:27:45.110Z,15.48
2023-04-08T01:30:15.357Z,13.65
2023-04-08T01:32:44.881Z,13.90
2023-04-08T01:35:13.915Z,13.82
2023-04-08T01:37:44.475Z,13.60
2023-04-08T01:40:13.923Z,13.43
2023-04-08T01:42:43.622Z,11.98
2023-04-08T01:48:08.438Z,10.85
2023-04-08T01:50:37.780Z,11.20
2023-04-08T01:53:08.402Z,9.82
2023-04-08T01:55:37.877Z,11.32
2023-04-08T01:58:11.131Z,9.30
2023-04-08T02:00:43.518Z,9.25
2023-04-08T02:03:15.181Z,9.23
2023-04-08T02:05:44.607Z,8.27
2023-04-08T02:08:13.800Z,7.60
2023-04-08T02:10:42.962Z,8.18
2023-04-08T02:13:12.635Z,8.63
2023-04-08T02:15:45.463Z,8.50
2023-04-08T02:18:16.290Z,9.18
2023-04-08T02:20:46.518Z,7.68
2023-04-08T02:23:16.516Z,8.02
2023-04-08T02:25:46.694Z,7.85
2023-04-08T02:28:15.938Z,7.93
2023-04-08T02:30:50.320Z,8.85
2023-04-08T02:33:19.967Z,7.68
2023-04-08T02:35:49.299Z,8.45
2023-04-08T02:38:19.126Z,8.27
2023-04-08T02:43:17.147Z,7.85
2023-04-08T02:45:47.883Z,9.50
2023-04-08T02:48:17.199Z,10.07
2023-04-08T02:50:52.490Z,9.98
2023-04-08T02:53:31.806Z,8.70
2023-04-08T02:56:19.149Z,8.70
2023-04-08T02:59:14.794Z,9.57
2023-04-08T03:01:48.427Z,8.40
2023-04-08T03:04:18.908Z,8.32
2023-04-08T03:06:49.803Z,8.55
2023-04-08T03:09:18.579Z,8.73
2023-04-08T03:11:52.729Z,8.40
2023-04-08T03:14:21.788Z,8.13
2023-04-08T03:16:53.128Z,9.20
2023-04-08T03:19:22.020Z,8.73
2023-04-08T03:21:51.498Z,8.90
2023-04-08T03:24:23.286Z,8.30
2023-04-08T03:26:52.480Z,8.27
2023-04-08T03:29:21.631Z,7.97
2023-04-08T03:31:52.718Z,8.10
2023-04-08T03:34:22.636Z,8.00
2023-04-08T03:36:51.826Z,7.90
2023-04-08T03:39:23.741Z,8.57
2023-04-08T03:41:52.894Z,7.43
2023-04-08T03:44:42.588Z,7.88
2023-04-08T03:50:41.455Z,6.85
2023-04-08T03:53:14.496Z,7.00
2023-04-08T03:55:46.498Z,6.38
2023-04-08T03:58:16.209Z,7.07
2023-04-08T04:00:45.300Z,6.50
2023-04-08T04:03:14.889Z,5.87
2023-04-08T04:05:45.479Z,6.20
2023-04-08T04:08:14.244Z,6.43
2023-04-08T04:10:43.657Z,6.00
2023-04-08T04:13:12.803Z,6.55
2023-04-08T04:15:42.543Z,6.85
2023-04-08T04:18:12.483Z,6.70
2023-04-08T04:20:42.535Z,5.82
2023-04-08T04:23:13.748Z,6.75
2023-04-08T04:25:43.429Z,6.57
2023-04-08T04:28:12.577Z,6.22
2023-04-08T04:30:41.953Z,6.47
2023-04-08T04:33:11.039Z,7.25
2023-04-08T04:35:41.497Z,6.97
2023-04-08T04:38:12.658Z,6.53
2023-04-08T04:40:44.374Z,7.30
2023-04-08T04:43:13.686Z,7.43
2023-04-08T04:45:43.390Z,8.30
2023-04-08T04:48:13.046Z,7.72
2023-04-08T04:50:42.521Z,7.55
2023-04-08T04:53:11.615Z,7.15
2023-04-08T04:55:41.414Z,6.17
2023-04-08T04:58:12.236Z,6.75
2023-04-08T05:00:41.485Z,7.05
2023-04-08T05:03:11.140Z,9.55
2023-04-08T05:05:40.318Z,10.32
2023-04-08T05:08:09.439Z,12.40
2023-04-08T05:10:38.554Z,12.07
2023-04-08T05:13:08.109Z,11.65
2023-04-08T05:15:41.817Z,14.38
2023-04-08T05:18:11.084Z,14.85
2023-04-08T05:20:40.419Z,15.18
2023-04-08T05:23:10.351Z,15.32
2023-04-08T05:28:08.142Z,15.68
2023-04-08T05:30:38.229Z,14.80
2023-04-08T05:33:07.101Z,13.63
2023-04-08T05:35:36.571Z,13.40
2023-04-08T05:38:05.263Z,13.38
2023-04-08T05:40:34.332Z,14.10
2023-04-08T05:43:03.422Z,13.27
2023-04-08T05:45:32.187Z,13.77
2023-04-08T05:48:03.003Z,13.05
2023-04-08T05:50:32.158Z,13.88
2023-04-08T05:53:00.888Z,14.02
2023-04-08T05:55:29.960Z,13.50
2023-04-08T05:57:58.990Z,14.25
2023-04-08T06:00:27.921Z,14.53
2023-04-08T06:02:57.372Z,12.25
2023-04-08T06:05:29.234Z,14.02
2023-04-08T06:07:58.986Z,14.07
2023-04-08T06:12:56.882Z,15.43
2023-04-08T06:15:25.968Z,15.13
2023-04-08T06:17:54.606Z,15.75
2023-04-08T06:20:23.753Z,16.52
2023-04-08T06:22:54.153Z,14.32
2023-04-08T06:25:25.606Z,13.27
2023-04-08T06:27:54.347Z,13.13
2023-04-08T06:30:23.367Z,12.73
2023-04-08T06:32:52.366Z,13.10
2023-04-08T06:35:21.890Z,13.23
2023-04-08T06:37:50.768Z,13.40
2023-04-08T06:40:21.391Z,13.75
2023-04-08T06:42:50.386Z,14.63
2023-04-08T06:45:19.581Z,13.83
2023-04-08T06:47:48.443Z,15.30
2023-04-08T06:50:17.157Z,15.80
2023-04-08T06:52:45.781Z,14.20
2023-04-08T06:55:14.924Z,16.38
2023-04-08T06:57:44.965Z,15.95
2023-04-08T07:00:14.312Z,16.17
2023-04-08T07:02:43.416Z,16.98
2023-04-08T07:05:12.629Z,15.95
2023-04-08T07:07:41.646Z,16.05
2023-04-08T07:10:11.345Z,15.10
2023-04-08T07:12:40.488Z,15.10
2023-04-08T07:15:11.793Z,16.20
2023-04-08T07:17:40.914Z,16.30
2023-04-08T07:20:10.132Z,15.00
2023-04-08T07:22:38.890Z,15.68
2023-04-08T07:25:08.226Z,14.52
2023-04-08T07:27:37.656Z,14.40
2023-04-08T07:30:07.283Z,14.52
2023-04-08T07:32:38.108Z,15.38
2023-04-08T07:35:07.196Z,15.10
2023-04-08T07:37:36.080Z,15.60
2023-04-08T07:40:05.024Z,14.32
2023-04-08T07:42:33.822Z,15.02
2023-04-08T07:45:02.777Z,13.93
2023-04-08T07:47:31.913Z,14.83
2023-04-08T07:50:02.207Z,14.60
2023-04-08T07:52:32.220Z,14.68
2023-04-08T07:55:02.025Z,14.52
2023-04-08T07:59:59.872Z,15.38
2023-04-08T08:02:28.744Z,16.15
2023-04-08T08:04:57.630Z,17.17
2023-04-08T08:07:27.666Z,17.00
2023-04-08T08:09:56.272Z,16.98
2023-04-08T08:12:25.242Z,18.85
2023-04-08T08:14:59.009Z,18.80
2023-04-08T08:17:30.184Z,19.30
2023-04-08T08:19:58.890Z,20.63
2023-04-08T08:22:29.021Z,19.30
2023-04-08T08:24:58.179Z,19.10
2023-04-08T08:27:27.130Z,20.95
2023-04-08T08:29:55.754Z,19.42
2023-04-08T08:32:24.537Z,19.65
2023-04-08T08:34:53.745Z,19.67
2023-04-08T08:37:22.480Z,20.67
2023-04-08T08:39:53.361Z,18.95
2023-04-08T08:42:22.727Z,17.90
2023-04-08T08:44:51.978Z,18.90
2023-04-08T08:47:21.044Z,18.42
2023-04-08T08:49:50.112Z,19.63
2023-04-08T08:52:19.232Z,18.67
2023-04-08T08:54:47.872Z,19.83
2023-04-08T08:57:21.175Z,18.48
2023-04-08T08:59:50.271Z,19.35
2023-04-08T09:02:26.835Z,20.20
2023-04-08T09:04:59.641Z,18.35
2023-04-08T09:07:28.912Z,18.67
2023-04-08T09:09:58.859Z,19.77
2023-04-08T09:12:29.598Z,19.95
2023-04-08T09:15:08.468Z,20.45
2023-04-08T09:17:38.137Z,20.33
2023-04-08T09:20:09.931Z,21.70
2023-04-08T09:22:57.135Z,21.27
2023-04-08T09:25:26.655Z,20.27
2023-04-08T09:27:57.053Z,19.55
2023-04-08T09:30:26.613Z,19.23
2023-04-08T09:32:56.455Z,20.45
2023-04-08T09:37:53.716Z,19.02
2023-04-08T09:40:22.799Z,18.13
2023-04-08T09:42:54.614Z,18.80
2023-04-08T09:45:28.115Z,18.48
2023-04-08T09:47:58.837Z,16.10
2023-04-08T09:50:29.595Z,17.67
2023-04-08T09:53:02.563Z,16.67
2023-04-08T09:55:33.560Z,16.40
2023-04-08T09:58:04.656Z,16.73
2023-04-08T10:00:39.719Z,16.38
2023-04-08T10:03:21.507Z,16.17
2023-04-08T10:05:50.997Z,17.55
2023-04-08T10:08:19.754Z,16.55
2023-04-08T10:10:48.866Z,16.17
2023-04-08T10:13:17.988Z,15.50
2023-04-08T10:15:49.106Z,15.02
2023-04-08T10:18:39.195Z,16.30
2023-04-08T10:21:28.135Z,15.68
2023-04-08T10:23:59.733Z,17.67
2023-04-08T10:26:36.449Z,18.98
2023-04-08T10:29:23.605Z,20.80
2023-04-08T10:31:53.634Z,22.35
2023-04-08T10:34:25.144Z,23.20
2023-04-08T10:36:55.393Z,24.77
2023-04-08T10:39:24.528Z,23.38
2023-04-08T10:41:53.250Z,25.33
2023-04-08T10:44:22.493Z,23.52
2023-04-08T10:46:51.960Z,22.40
2023-04-08T10:49:22.713Z,24.10
2023-04-08T10:51:51.434Z,22.25
2023-04-08T10:54:20.225Z,22.85
2023-04-08T10:56:49.551Z,21.08
2023-04-08T10:59:20.188Z,23.02
2023-04-08T11:01:49.238Z,22.83
2023-04-08T11:04:19.445Z,24.60
2023-04-08T11:06:49.838Z,24.15
2023-04-08T11:09:18.687Z,26.77
2023-04-08T11:11:48.640Z,26.70
2023-04-08T11:16:48.672Z,25.38
2023-04-08T11:19:18.042Z,25.90
2023-04-08T11:21:48.152Z,25.35
2023-04-08T11:24:18.394Z,23.35
2023-04-08T11:26:47.351Z,24.73
2023-04-08T11:29:17.091Z,26.80
2023-04-08T11:31:47.152Z,25.40
2023-04-08T11:34:23.593Z,26.98
2023-04-08T11:36:52.536Z,26.77
2023-04-08T11:39:26.508Z,25.50
2023-04-08T11:41:55.628Z,26.15
2023-04-08T11:44:32.332Z,26.77
2023-04-08T11:47:02.198Z,24.20
2023-04-08T11:49:45.550Z,23.90
2023-04-08T11:52:14.422Z,23.77
2023-04-08T11:54:44.622Z,22.85
2023-04-08T11:57:15.099Z,22.35
2023-04-08T11:59:44.092Z,23.35
2023-04-08T12:02:13.453Z,22.07
2023-04-08T12:04:42.331Z,21.63
2023-04-08T12:07:11.819Z,20.25
2023-04-08T12:09:40.564Z,20.63
2023-04-08T12:12:11.036Z,19.35
2023-04-08T12:14:39.708Z,19.75
2023-04-08T12:17:08.621Z,21.02
2023-04-08T12:19:38.529Z,21.33
2023-04-08T12:22:07.317Z,19.77
2023-04-08T12:24:36.665Z,19.63
2023-04-08T12:27:06.267Z,20.58
2023-04-08T12:29:36.535Z,20.23
2023-04-08T12:32:05.666Z,20.50
2023-04-08T12:34:37.501Z,21.10
2023-04-08T12:37:07.699Z,20.58
2023-04-08T12:39:36.373Z,21.23
2023-04-08T12:42:05.722Z,23.45
2023-04-08T12:44:36.403Z,23.60
2023-04-08T12:47:05.621Z,24.35
2023-04-08T12:49:48.951Z,23.40
2023-04-08T12:52:19.019Z,25.27
2023-04-08T12:54:47.914Z,26.07
2023-04-08T12:57:17.488Z,25.95
2023-04-08T12:59:48.036Z,26.40
2023-04-08T13:02:16.872Z,25.25
2023-04-08T13:04:45.650Z,25.25
2023-04-08T13:07:14.675Z,25.73
2023-04-08T13:09:45.416Z,24.63
2023-04-08T13:12:16.254Z,25.08
2023-04-08T13:14:45.287Z,25.55
2023-04-08T13:17:15.590Z,25.97
2023-04-08T13:19:44.378Z,25.20
2023-04-08T13:22:14.002Z,26.73
2023-04-08T13:24:42.918Z,29.00
2023-04-08T13:27:11.649Z,35.85
2023-04-08T13:29:40.861Z,35.85
2023-04-08T13:32:09.607Z,28.63
2023-04-08T13:34:39.812Z,27.05
2023-04-08T13:37:08.777Z,24.85
2023-04-08T13:39:37.967Z,25.07
2023-04-08T13:42:06.640Z,25.65
2023-04-08T13:44:35.287Z,23.63
2023-04-08T13:47:03.904Z,24.15
2023-04-08T13:49:32.917Z,24.48
2023-04-08T13:52:03.210Z,23.57
2023-04-08T13:54:32.109Z,24.30
2023-04-08T13:57:01.430Z,25.17
2023-04-08T13:59:30.455Z,26.30
2023-04-08T14:01:59.202Z,24.97
2023-04-08T14:04:28.171Z,24.10
2023-04-08T14:06:58.230Z,23.50
2023-04-08T14:09:28.517Z,24.73
2023-04-08T14:11:58.938Z,23.80
2023-04-08T14:14:27.667Z,23.60
2023-04-08T14:16:56.392Z,23.58
2023-04-08T14:19:25.487Z,24.08
2023-04-08T14:21:54.503Z,24.13
2023-04-08T14:24:23.440Z,24.30
2023-04-08T14:26:53.471Z,23.70
2023-04-08T14:29:22.140Z,24.02
2023-04-08T14:31:50.830Z,25.95
2023-04-08T14:34:19.514Z,25.55
2023-04-08T14:36:48.734Z,24.00
2023-04-08T14:39:17.707Z,29.73
2023-04-08T14:41:47.741Z,26.07
2023-04-08T14:44:18.019Z,28.63
2023-04-08T14:46:47.081Z,27.08
2023-04-08T14:49:16.020Z,25.25
2023-04-08T14:51:44.674Z,25.38
2023-04-08T14:54:14.347Z,25.30
2023-04-08T14:56:43.330Z,23.83
2023-04-08T14:59:12.075Z,24.33
2023-04-08T15:01:42.298Z,32.30
2023-04-08T15:04:11.207Z,36.67
2023-04-08T15:06:40.537Z,38.80
2023-04-08T15:09:09.447Z,47.50
2023-04-08T15:11:38.415Z,27.20
2023-04-08T15:14:07.185Z,40.28
2023-04-08T15:16:36.141Z,26.95
2023-04-08T15:19:06.501Z,29.17
2023-04-08T15:21:35.379Z,31.63
2023-04-08T15:24:03.981Z,23.98
2023-04-08T15:26:32.758Z,24.42
2023-04-08T15:29:01.544Z,24.77
2023-04-08T15:31:31.416Z,23.80
2023-04-08T15:36:30.996Z,22.25
2023-04-08T15:38:59.917Z,22.33
2023-04-08T15:41:28.822Z,22.33
2023-04-08T15:43:57.460Z,21.83
2023-04-08T15:46:26.398Z,23.50
2023-04-08T15:48:55.436Z,21.27
2023-04-08T15:51:24.328Z,21.67
2023-04-08T15:53:54.690Z,20.75
2023-04-08T15:56:23.878Z,21.23
2023-04-08T15:58:54.026Z,21.00
2023-04-08T16:01:23.124Z,20.95
2023-04-08T16:03:52.038Z,21.27
2023-04-08T16:06:21.125Z,20.37
2023-04-08T16:08:50.365Z,20.10
2023-04-08T16:11:22.257Z,20.23
2023-04-08T16:13:51.011Z,19.90
2023-04-08T16:16:20.437Z,19.50
2023-04-08T16:18:49.555Z,20.83
2023-04-08T16:21:18.646Z,21.17
2023-04-08T16:23:47.287Z,22.50
2023-04-08T16:26:16.099Z,21.67
2023-04-08T16:28:46.470Z,20.65
2023-04-08T16:31:15.372Z,22.63
2023-04-08T16:33:44.168Z,23.63
2023-04-08T16:36:13.068Z,24.42
2023-04-08T16:38:41.814Z,22.95
2023-04-08T16:41:10.681Z,22.70
2023-04-08T16:43:39.306Z,23.10
2023-04-08T16:46:13.164Z,25.45
2023-04-08T16:48:43.803Z,21.67
2023-04-08T16:51:12.597Z,29.90
2023-04-08T16:53:41.554Z,23.75
2023-04-08T16:56:14.729Z,24.57
2023-04-08T16:58:43.828Z,22.40
2023-04-08T17:01:14.774Z,21.98
2023-04-08T17:03:43.635Z,22.35
2023-04-08T17:06:13.451Z,23.58
2023-04-08T17:11:12.244Z,22.02
2023-04-08T17:13:41.895Z,20.27
2023-04-08T17:16:15.081Z,22.98
2023-04-08T17:18:44.243Z,26.80
2023-04-08T17:21:14.015Z,24.88
2023-04-08T17:23:42.889Z,23.52
2023-04-08T17:26:12.739Z,25.27
2023-04-08T17:31:10.631Z,22.92
2023-04-08T17:33:40.913Z,22.25
2023-04-08T17:36:10.092Z,23.02
2023-04-08T17:38:40.049Z,26.92
2023-04-08T17:41:09.983Z,25.70
2023-04-08T17:43:38.992Z,25.25
2023-04-08T17:46:07.701Z,24.80
2023-04-08T17:48:36.704Z,22.40
2023-04-08T17:51:07.795Z,24.80
2023-04-08T17:53:38.189Z,25.10
2023-04-08T17:56:07.160Z,25.58
2023-04-08T17:58:35.981Z,25.50
2023-04-08T18:01:04.655Z,25.65
2023-04-08T18:03:33.704Z,25.35
2023-04-08T18:06:02.361Z,25.90
2023-04-08T18:08:32.338Z,25.25
2023-04-08T18:11:00.972Z,26.15
2023-04-08T18:13:29.592Z,29.60
2023-04-08T18:15:58.300Z,32.83
2023-04-08T18:18:27.388Z,37.15
2023-04-08T18:20:56.054Z,219.57
2023-04-08T18:23:24.673Z,258.23
2023-04-08T18:25:54.660Z,121.97
2023-04-08T18:28:23.371Z,63.40
2023-04-08T18:30:53.680Z,45.90
2023-04-08T18:33:22.571Z,42.78
2023-04-08T18:35:52.595Z,29.77
2023-04-08T18:38:21.909Z,29.20
2023-04-08T18:40:50.561Z,26.92
2023-04-08T18:43:20.554Z,24.13
2023-04-08T18:45:49.226Z,23.63
2023-04-08T18:48:17.880Z,28.98
2023-04-08T18:50:46.842Z,37.40
2023-04-08T18:53:15.480Z,34.90
2023-04-08T18:55:44.833Z,35.25
2023-04-08T18:58:13.545Z,28.60
2023-04-08T19:00:43.995Z,27.50
2023-04-08T19:03:12.908Z,27.42
2023-04-08T19:05:41.604Z,26.88
2023-04-08T19:08:10.446Z,27.02
2023-04-08T19:10:39.184Z,28.70
2023-04-08T19:13:07.764Z,29.23
2023-04-08T19:15:36.980Z,29.23
2023-04-08T19:18:07.150Z,32.03
2023-04-08T19:20:35.840Z,33.75
2023-04-08T19:23:04.749Z,35.15
2023-04-08T19:25:33.811Z,32.47
2023-04-08T19:28:03.180Z,32.45
2023-04-08T19:30:31.898Z,31.17
2023-04-08T19:33:00.507Z,30.42
2023-04-08T19:35:30.965Z,30.10
2023-04-08T19:37:59.901Z,33.30
2023-04-08T19:40:28.817Z,31.53
2023-04-08T19:42:57.483Z,35.57
2023-04-08T19:45:26.176Z,36.38
2023-04-08T19:47:54.824Z,36.60
2023-04-08T19:50:23.500Z,36.47
2023-04-08T19:52:53.477Z,37.78
2023-04-08T19:55:22.226Z,41.25
2023-04-08T19:57:51.839Z,42.83
2023-04-08T20:00:21.071Z,47.25
2023-04-08T20:02:49.869Z,42.75
2023-04-08T20:05:18.757Z,42.95
2023-04-08T20:07:47.526Z,38.97
2023-04-08T20:10:18.353Z,40.47
2023-04-08T20:12:47.013Z,43.03
2023-04-08T20:15:24.087Z,41.92
2023-04-08T20:17:53.963Z,44.97
2023-04-08T20:20:23.046Z,42.05
2023-04-08T20:22:51.744Z,41.33
2023-04-08T20:25:22.720Z,39.17
2023-04-08T20:27:51.385Z,41.05
2023-04-08T20:30:20.012Z,41.28
2023-04-08T20:32:49.193Z,41.30
2023-04-08T20:35:18.254Z,44.08
2023-04-08T20:37:47.489Z,45.90
2023-04-08T20:40:18.367Z,46.60
2023-04-08T20:42:48.991Z,46.88
2023-04-08T20:45:17.792Z,48.03
2023-04-08T20:47:46.721Z,47.53
2023-04-08T20:50:15.832Z,38.27
2023-04-08T20:52:44.818Z,45.17
2023-04-08T20:55:13.712Z,42.33
2023-04-08T20:57:44.660Z,47.33
2023-04-08T21:00:16.174Z,49.10
2023-04-08T21:02:44.941Z,49.00
2023-04-08T21:05:14.078Z,43.92
2023-04-08T21:07:44.558Z,44.67
2023-04-08T21:10:14.209Z,45.15
2023-04-08T21:12:43.287Z,44.28
2023-04-08T21:15:12.323Z,42.58
2023-04-08T21:17:42.519Z,41.40
2023-04-08T21:20:11.850Z,45.97
2023-04-08T21:22:40.485Z,46.97
2023-04-08T21:25:09.562Z,58.95
2023-04-08T21:27:40.610Z,42.97
2023-04-08T21:30:10.254Z,59.33
2023-04-08T21:35:10.079Z,52.40
2023-04-08T21:37:38.688Z,48.53
2023-04-08T21:40:08.129Z,47.55
2023-04-08T21:42:37.052Z,49.00
2023-04-08T21:45:06.398Z,48.33
2023-04-08T21:47:35.015Z,51.33
2023-04-08T21:50:03.805Z,48.55
2023-04-08T21:52:33.877Z,50.10
2023-04-08T21:55:02.738Z,50.00
2023-04-08T21:57:32.089Z,50.33
2023-04-08T22:00:01.040Z,51.05
2023-04-08T22:02:29.998Z,49.30
2023-04-08T22:04:59.219Z,49.42
2023-04-08T22:07:28.020Z,55.83
2023-04-08T22:09:58.005Z,63.93
2023-04-08T22:12:27.080Z,58.83
2023-04-08T22:14:55.897Z,58.22
2023-04-08T22:17:24.556Z,59.47
2023-04-08T22:19:53.227Z,53.15
2023-04-08T22:22:21.832Z,52.63
2023-04-08T22:24:50.613Z,49.78
2023-04-08T22:27:20.710Z,50.87
2023-04-08T22:29:49.774Z,52.65
2023-04-08T22:32:18.982Z,55.33
2023-04-08T22:34:47.559Z,52.60
2023-04-08T22:37:16.218Z,50.92
2023-04-08T22:39:44.866Z,48.55
2023-04-08T22:42:13.754Z,49.15
2023-04-08T22:44:43.825Z,47.00
2023-04-08T22:47:12.675Z,49.40
2023-04-08T22:49:42.584Z,50.37
2023-04-08T22:52:11.312Z,49.67
2023-04-08T22:54:40.025Z,50.88
2023-04-08T22:57:08.646Z,49.20
2023-04-08T22:59:37.291Z,49.05
2023-04-08T23:02:07.479Z,49.30
2023-04-08T23:04:36.219Z,47.50
2023-04-08T23:07:04.843Z,47.63
2023-04-08T23:09:33.728Z,47.78
2023-04-08T23:12:03.005Z,48.15
2023-04-08T23:14:31.602Z,48.22
2023-04-08T23:17:00.250Z,47.53
2023-04-08T23:19:30.524Z,48.28
2023-04-08T23:21:59.213Z,47.50
2023-04-08T23:24:27.834Z,47.95
2023-04-08T23:26:56.761Z,47.67
2023-04-08T23:29:25.682Z,47.33
2023-04-08T23:31:54.303Z,47.60
2023-04-08T23:34:22.898Z,49.90
2023-04-08T23:36:53.468Z,46.22
2023-04-08T23:39:22.135Z,47.05
2023-04-08T23:41:51.354Z,48.40
2023-04-08T23:44:20.232Z,45.75
2023-04-08T23:46:49.013Z,46.13
2023-04-08T23:49:17.690Z,47.80
2023-04-08T23:51:48.549Z,44.60
2023-04-08T23:54:18.848Z,42.80
2023-04-08T23:56:47.473Z,43.63
2023-04-08T23:59:16.156Z,43.92
